Time;durP1;ratioP1;P1;durP2;ratioP2;P2;SDS_P1;SDS_P2;PMS_P1;PMS_P2;Temp;Humidity;BMP_temperature;BMP_pressure;BME280_temperature;BME280_humidity;BME280_pressure;Samples;Min_cycle;Max_cycle;Signal;HPM_P1;HPM_P2
2023/11/12 00:02:24;;;;;;;25.23;16.00;;;;;;;11.90;93.17;98501.70;123422;1100;104245;-78
2023/11/12 00:04:55;;;;;;;24.57;14.77;;;;;;;11.88;93.30;98506.96;123353;1102;104283;-78
2023/11/12 00:07:27;;;;;;;26.70;15.87;;;;;;;11.92;93.67;98499.94;123536;1099;104358;-77
2023/11/12 00:09:58;;;;;;;25.17;16.40;;;;;;;11.95;93.52;98492.08;123532;1102;104406;-77
2023/11/12 00:12:31;;;;;;;26.37;16.03;;;;;;;11.97;93.50;98483.33;123454;1099;104364;-78
2023/11/12 00:15:03;;;;;;;26.23;16.70;;;;;;;11.99;93.43;98480.70;123389;1099;105681;-79
2023/11/12 00:17:35;;;;;;;25.37;15.80;;;;;;;11.97;93.55;98479.83;123281;1100;104305;-78
2023/11/12 00:20:12;;;;;;;24.83;15.27;;;;;;;11.93;93.44;98478.94;123461;1102;104258;-77
2023/11/12 00:22:44;;;;;;;25.47;14.83;;;;;;;11.89;93.50;98469.30;123348;1102;104422;-78
2023/11/12 00:25:15;;;;;;;25.70;15.23;;;;;;;11.91;93.65;98469.30;123654;1101;104367;-77
2023/11/12 00:27:47;;;;;;;28.33;15.70;;;;;;;11.92;93.82;98477.22;123653;1099;104347;-77
2023/11/12 00:30:18;;;;;;;26.27;15.73;;;;;;;11.94;93.55;98479.84;123850;1099;104241;-78
2023/11/12 00:32:50;;;;;;;24.37;15.40;;;;;;;11.95;93.60;98478.94;123464;1099;104169;-78
2023/11/12 00:35:21;;;;;;;27.47;15.97;;;;;;;11.97;93.75;98479.83;123579;1102;104276;-79
2023/11/12 00:37:53;;;;;;;26.33;15.50;;;;;;;11.99;93.98;98483.33;123456;1102;104185;-78
2023/11/12 00:40:24;;;;;;;27.07;17.30;;;;;;;12.01;94.12;98484.19;123445;1101;104361;-77
2023/11/12 00:42:56;;;;;;;27.53;17.50;;;;;;;12.04;94.14;98478.92;123470;1102;104245;-78
2023/11/12 00:45:29;;;;;;;28.97;17.97;;;;;;;12.04;94.10;98476.30;123604;1101;104245;-78
2023/11/12 00:48:01;;;;;;;28.50;16.87;;;;;;;12.08;94.38;98477.18;123472;1099;104339;-78
2023/11/12 00:50:34;;;;;;;29.10;17.40;;;;;;;12.11;94.23;98472.78;123472;1099;104396;-77
2023/11/12 00:53:06;;;;;;;30.03;18.07;;;;;;;12.14;94.43;98469.25;123307;1102;104258;-77
2023/11/12 00:55:38;;;;;;;28.87;17.90;;;;;;;12.12;94.39;98466.63;123553;1099;104287;-79
2023/11/12 00:58:10;;;;;;;29.17;17.33;;;;;;;12.10;94.25;98459.64;123544;1102;104271;-77
2023/11/12 01:00:42;;;;;;;30.03;17.53;;;;;;;12.06;94.05;98453.53;123421;1102;104322;-78
2023/11/12 01:03:13;;;;;;;28.10;17.35;;;;;;;12.04;94.16;98450.00;123487;1102;104354;-78
2023/11/12 01:05:45;;;;;;;26.53;17.17;;;;;;;12.02;94.11;98449.14;123534;1102;104226;-78
2023/11/12 01:08:16;;;;;;;29.23;18.07;;;;;;;12.00;94.30;98441.27;123425;1102;104357;-77
2023/11/12 01:10:48;;;;;;;31.37;18.53;;;;;;;12.02;94.63;98442.12;123188;1102;104325;-78
2023/11/12 01:13:20;;;;;;;27.83;17.10;;;;;;;12.06;94.90;98437.75;123225;1099;104347;-77
2023/11/12 01:15:53;;;;;;;30.10;18.13;;;;;;;12.09;94.75;98435.11;123363;1102;104335;-78
2023/11/12 01:18:24;;;;;;;29.97;18.47;;;;;;;12.13;94.83;98430.71;123714;1102;104265;-79
2023/11/12 01:20:56;;;;;;;30.97;18.43;;;;;;;12.15;94.77;98431.56;123542;1102;104240;-77
2023/11/12 01:23:28;;;;;;;29.13;18.20;;;;;;;12.17;94.99;98425.44;123607;1102;104223;-77
2023/11/12 01:25:59;;;;;;;28.30;18.10;;;;;;;12.21;94.91;98431.55;123348;1102;104249;-77
2023/11/12 01:28:32;;;;;;;27.47;17.63;;;;;;;12.24;94.79;98423.64;123226;1102;104367;-77
2023/11/12 01:31:04;;;;;;;30.02;18.82;;;;;;;12.26;94.79;98421.88;123238;1100;104360;-78
2023/11/12 01:33:36;;;;;;;28.67;17.90;;;;;;;12.27;95.35;98420.14;123601;1099;104245;-77
2023/11/12 01:36:09;;;;;;;29.13;17.97;;;;;;;12.28;95.38;98417.50;123394;1099;104329;-78
2023/11/12 01:38:41;;;;;;;26.07;17.17;;;;;;;12.26;94.84;98419.24;123394;1102;104357;-77
2023/11/12 01:41:13;;;;;;;27.35;17.30;;;;;;;12.23;94.99;98408.73;123344;1102;104549;-77
2023/11/12 01:43:44;;;;;;;31.27;18.47;;;;;;;12.23;95.21;98406.11;123296;1103;104211;-77
2023/11/12 01:46:18;;;;;;;29.10;19.50;;;;;;;12.25;95.04;98400.84;123431;1102;104248;-77
2023/11/12 01:48:50;;;;;;;31.10;17.77;;;;;;;12.27;95.17;98393.84;123356;1099;104283;-76
2023/11/12 01:51:23;;;;;;;30.07;18.63;;;;;;;12.28;95.27;98392.94;123330;1099;104277;-76
2023/11/12 01:53:56;;;;;;;27.82;17.15;;;;;;;12.28;95.24;98390.31;123366;1098;104762;-78
2023/11/12 01:56:29;;;;;;;28.20;17.73;;;;;;;12.28;95.40;98395.57;123626;1099;104318;-77
2023/11/12 01:59:01;;;;;;;27.40;17.73;;;;;;;12.27;95.35;98391.22;123436;1102;104316;-76
2023/11/12 02:01:33;;;;;;;28.20;17.60;;;;;;;12.25;95.28;98388.59;123654;1102;104349;-78
2023/11/12 02:04:08;;;;;;;29.60;18.57;;;;;;;12.24;95.44;98386.83;123687;1100;104171;-77
2023/11/12 02:06:39;;;;;;;27.80;17.97;;;;;;;12.23;95.48;98380.71;123512;1102;104255;-79
2023/11/12 02:09:12;;;;;;;27.67;18.00;;;;;;;12.19;95.07;98384.22;123555;1102;104341;-79
2023/11/12 02:11:44;;;;;;;29.10;18.43;;;;;;;12.19;95.39;98378.97;123742;1099;104238;-78
2023/11/12 02:14:16;;;;;;;29.93;18.43;;;;;;;12.20;95.40;98382.45;123793;1099;103325;-78
2023/11/12 02:16:48;;;;;;;31.15;19.05;;;;;;;12.21;95.53;98385.08;123519;1101;104413;-78
2023/11/12 02:19:28;;;;;;;30.23;19.27;;;;;;;12.22;95.84;98380.72;123412;1102;104310;-77
2023/11/12 02:21:59;;;;;;;31.10;19.27;;;;;;;12.21;95.48;98377.19;123561;1102;104255;-77
2023/11/12 02:24:31;;;;;;;28.43;17.93;;;;;;;12.20;95.46;98372.84;123708;1102;104650;-79
2023/11/12 02:27:03;;;;;;;29.03;18.40;;;;;;;12.18;95.83;98368.45;123633;1101;104296;-76
2023/11/12 02:29:35;;;;;;;32.00;18.70;;;;;;;12.15;95.83;98364.08;123430;1099;104360;-77
2023/11/12 02:32:08;;;;;;;29.80;18.60;;;;;;;12.12;95.60;98369.34;123429;1102;104357;-76
2023/11/12 02:34:39;;;;;;;32.67;20.20;;;;;;;12.12;95.95;98366.72;123355;1100;104296;-77
2023/11/12 02:37:12;;;;;;;30.77;18.27;;;;;;;12.12;95.55;98366.72;123255;1102;104325;-77
2023/11/12 02:39:44;;;;;;;32.10;19.23;;;;;;;12.08;95.77;98372.03;123268;1102;104168;-76
2023/11/12 02:42:17;;;;;;;35.10;19.75;;;;;;;12.07;95.75;98371.13;123253;1102;104350;-75
2023/11/12 02:44:49;;;;;;;33.63;19.23;;;;;;;12.05;95.89;98376.40;123448;1102;104348;-77
2023/11/12 02:47:21;;;;;;;41.23;20.33;;;;;;;12.02;95.83;98379.04;124046;1102;104255;-77
2023/11/12 02:50:11;;;;;;;36.15;19.85;;;;;;;12.01;95.80;98376.41;123961;1102;104246;-76
2023/11/12 02:52:43;;;;;;;33.27;18.03;;;;;;;11.96;96.05;98372.94;123908;1102;104214;-78
2023/11/12 02:55:16;;;;;;;35.60;18.20;;;;;;;11.88;95.67;98365.05;123838;1102;104401;-78
2023/11/12 02:57:49;;;;;;;32.97;17.60;;;;;;;11.74;95.82;98372.12;123843;1102;104351;-78
2023/11/12 03:00:21;;;;;;;32.20;17.10;;;;;;;11.61;95.66;98372.15;123903;1102;104274;-78
2023/11/12 03:02:53;;;;;;;26.63;15.77;;;;;;;11.55;95.73;98372.16;123863;1102;104182;-78
2023/11/12 03:05:25;;;;;;;29.00;17.73;;;;;;;11.49;95.95;98383.55;123974;1102;104300;-78
2023/11/12 03:07:57;;;;;;;35.90;17.97;;;;;;;11.48;96.15;98381.81;123923;1102;104219;-78
2023/11/12 03:10:29;;;;;;;27.60;16.70;;;;;;;11.48;96.33;98383.55;123856;1102;104402;-78
2023/11/12 03:13:01;;;;;;;32.87;15.90;;;;;;;11.44;96.26;98376.57;123885;1102;104374;-77
2023/11/12 03:15:33;;;;;;;24.00;13.87;;;;;;;11.39;96.23;98368.70;123695;1102;104328;-77
2023/11/12 03:18:04;;;;;;;22.47;11.33;;;;;;;11.33;96.45;98363.46;123587;1102;104226;-76
2023/11/12 03:20:36;;;;;;;18.63;10.13;;;;;;;11.17;96.36;98367.83;123577;1102;104425;-77
2023/11/12 03:23:07;;;;;;;22.63;11.97;;;;;;;11.00;96.35;98360.00;123714;1102;104243;-80
2023/11/12 03:25:39;;;;;;;20.43;10.20;;;;;;;10.92;96.72;98372.22;123537;1102;104788;-78
2023/11/12 03:28:10;;;;;;;20.93;9.40;;;;;;;10.76;97.77;98374.83;123755;1100;104270;-79
2023/11/12 03:30:43;;;;;;;18.13;8.67;;;;;;;10.61;97.64;98370.46;123799;1099;104305;-79
2023/11/12 03:33:14;;;;;;;14.07;7.10;;;;;;;10.48;98.56;98375.68;123827;1099;104431;-77
2023/11/12 03:35:47;;;;;;;12.23;5.67;;;;;;;10.31;98.39;98380.84;123677;1102;104408;-77
2023/11/12 03:38:19;;;;;;;12.03;5.77;;;;;;;10.15;97.93;98388.66;123642;1099;104316;-78
2023/11/12 03:40:51;;;;;;;13.87;6.73;;;;;;;10.08;97.58;98390.39;123735;1102;104460;-78
2023/11/12 03:43:22;;;;;;;20.27;9.20;;;;;;;10.08;97.97;98398.25;123760;1102;104296;-77
2023/11/12 03:45:54;;;;;;;21.43;9.93;;;;;;;10.07;98.03;98404.34;123678;1102;104220;-77
2023/11/12 03:48:25;;;;;;;21.10;9.77;;;;;;;10.14;98.14;98402.63;123626;1102;104453;-78
2023/11/12 03:50:57;;;;;;;25.35;11.25;;;;;;;10.19;97.91;98402.64;123618;1099;104238;-78
2023/11/12 03:53:28;;;;;;;23.40;11.27;;;;;;;10.19;98.00;98405.27;123627;1102;104733;-78
2023/11/12 03:56:00;;;;;;;25.33;10.83;;;;;;;10.23;98.17;98399.17;123746;1102;104373;-78
2023/11/12 03:58:31;;;;;;;18.80;10.60;;;;;;;10.25;98.30;98405.28;123712;1100;104261;-78
2023/11/12 04:01:03;;;;;;;38.37;12.43;;;;;;;10.30;98.73;98402.67;123576;1102;107086;-77
2023/11/12 04:03:35;;;;;;;23.70;11.57;;;;;;;10.34;98.89;98399.23;123538;1102;104377;-77
2023/11/12 04:06:07;;;;;;;21.20;10.07;;;;;;;10.31;98.37;98402.68;123623;1101;104280;-77
2023/11/12 04:08:38;;;;;;;20.77;10.70;;;;;;;10.25;98.38;98408.80;123512;1102;104258;-77
2023/11/12 04:11:10;;;;;;;21.10;10.77;;;;;;;10.21;98.78;98411.41;123585;1102;104408;-77
2023/11/12 04:13:42;;;;;;;20.00;9.70;;;;;;;10.15;98.61;98416.63;123652;1100;104427;-78
2023/11/12 04:16:13;;;;;;;17.67;9.77;;;;;;;10.07;98.99;98420.07;123979;1102;104255;-78
2023/11/12 04:18:47;;;;;;;21.07;10.40;;;;;;;10.05;99.10;98424.44;124059;1102;104306;-77
2023/11/12 04:21:18;;;;;;;21.30;9.73;;;;;;;10.02;99.09;98434.01;123953;1102;104290;-78
2023/11/12 04:23:50;;;;;;;27.60;13.63;;;;;;;9.95;99.27;98433.11;124095;1102;104327;-77
2023/11/12 04:26:21;;;;;;;29.13;14.93;;;;;;;9.85;99.50;98440.06;123700;1102;104406;-77
2023/11/12 04:28:54;;;;;;;28.47;15.50;;;;;;;9.71;99.89;98436.48;123852;1102;104176;-79
2023/11/12 04:31:25;;;;;;;24.63;14.33;;;;;;;9.57;100.00;98449.49;123830;1102;104291;-78
2023/11/12 04:33:57;;;;;;;26.57;13.93;;;;;;;9.42;100.00;98449.38;123777;1102;104172;-79
2023/11/12 04:36:28;;;;;;;27.13;13.83;;;;;;;9.31;100.00;98459.77;123697;1101;104291;-78
2023/11/12 04:39:00;;;;;;;30.03;14.80;;;;;;;9.20;100.00;98456.19;123610;1102;104213;-77
2023/11/12 04:41:32;;;;;;;31.20;14.07;;;;;;;9.07;100.00;98463.94;123521;1102;104524;-77
2023/11/12 04:44:03;;;;;;;27.05;13.15;;;;;;;8.97;100.00;98481.25;123473;1102;104345;-77
2023/11/12 04:46:35;;;;;;;27.73;14.97;;;;;;;8.88;100.00;98481.20;123319;1102;104290;-75
2023/11/12 04:49:07;;;;;;;28.03;15.03;;;;;;;8.84;100.00;98489.86;123280;1102;104385;-75
2023/11/12 04:51:38;;;;;;;30.25;16.10;;;;;;;8.80;100.00;98496.81;123147;1102;104256;-74
2023/11/12 04:54:10;;;;;;;31.37;17.10;;;;;;;8.73;100.00;98509.80;123247;1102;104299;-75
2023/11/12 04:56:47;;;;;;;31.20;16.80;;;;;;;8.68;100.00;98512.36;123154;1102;104229;-74
2023/11/12 04:59:19;;;;;;;31.87;16.33;;;;;;;8.66;100.00;98514.06;123167;1102;104235;-74
2023/11/12 05:01:51;;;;;;;31.23;16.07;;;;;;;8.64;100.00;98516.66;123166;1099;104338;-73
2023/11/12 05:04:22;;;;;;;25.83;14.37;;;;;;;8.61;100.00;98542.77;123156;1099;104428;-74
2023/11/12 05:06:54;;;;;;;26.30;13.90;;;;;;;8.55;100.00;98540.08;123150;1102;104332;-74
2023/11/12 05:09:25;;;;;;;28.47;14.93;;;;;;;8.51;100.00;98543.53;123106;1099;104713;-75
2023/11/12 05:11:57;;;;;;;27.70;13.40;;;;;;;8.41;100.00;98559.91;123054;1099;104368;-74
2023/11/12 05:14:28;;;;;;;25.70;13.30;;;;;;;8.28;100.00;98556.25;123174;1099;104350;-74
2023/11/12 05:17:00;;;;;;;26.17;13.00;;;;;;;8.24;100.00;98572.73;123165;1099;104313;-74
2023/11/12 05:19:31;;;;;;;26.10;12.57;;;;;;;8.19;100.00;98574.42;123219;1102;104313;-74
2023/11/12 05:22:06;;;;;;;24.10;11.23;;;;;;;8.12;100.00;98594.36;123204;1099;104331;-75
2023/11/12 05:24:39;;;;;;;21.53;10.37;;;;;;;8.04;100.00;98599.47;123303;1102;104469;-76
2023/11/12 05:27:10;;;;;;;26.50;11.20;;;;;;;8.03;100.00;98604.67;123274;1099;104341;-76
2023/11/12 05:29:42;;;;;;;21.73;10.70;;;;;;;7.96;100.00;98618.47;123241;1099;104486;-76
2023/11/12 05:32:13;;;;;;;23.00;10.70;;;;;;;7.95;100.00;98617.61;123402;1099;104712;-77
2023/11/12 05:34:45;;;;;;;27.00;9.97;;;;;;;7.92;100.00;98628.00;123472;1099;104240;-78
2023/11/12 05:37:16;;;;;;;24.00;10.50;;;;;;;7.96;100.00;98631.53;123525;1099;104245;-77
2023/11/12 05:39:48;;;;;;;23.57;10.93;;;;;;;7.96;100.00;98641.98;123472;1099;104281;-76
2023/11/12 05:42:19;;;;;;;18.50;9.77;;;;;;;7.96;100.00;98650.68;123539;1099;104398;-77
2023/11/12 05:44:50;;;;;;;22.33;10.73;;;;;;;8.01;100.00;98655.98;123480;1099;104242;-77
2023/11/12 05:47:22;;;;;;;24.00;10.57;;;;;;;8.11;100.00;98663.12;123535;1099;104650;-77
2023/11/12 05:49:53;;;;;;;17.40;8.83;;;;;;;8.17;100.00;98671.06;123644;1102;104322;-75
2023/11/12 05:52:25;;;;;;;22.10;9.27;;;;;;;8.11;100.00;98681.41;123401;1099;104293;-75
2023/11/12 05:54:56;;;;;;;17.17;8.43;;;;;;;8.05;100.00;98674.34;123332;1099;104277;-75
2023/11/12 05:57:28;;;;;;;19.53;9.23;;;;;;;7.99;100.00;98679.46;123334;1099;105772;-75
2023/11/12 05:59:59;;;;;;;16.33;8.07;;;;;;;7.99;100.00;98691.66;123413;1099;104344;-75
2023/11/12 06:02:32;;;;;;;17.03;8.40;;;;;;;7.98;100.00;98702.94;123494;1099;104271;-77
2023/11/12 06:05:05;;;;;;;20.77;9.03;;;;;;;7.95;100.00;98705.50;123362;1099;104252;-76
2023/11/12 06:07:36;;;;;;;16.70;8.80;;;;;;;7.97;100.00;98722.10;123310;1099;104316;-76
2023/11/12 06:10:09;;;;;;;19.23;8.80;;;;;;;7.91;100.00;98715.89;123286;1099;104594;-75
2023/11/12 06:12:41;;;;;;;15.93;8.20;;;;;;;7.86;100.00;98719.30;123410;1099;104286;-76
2023/11/12 06:15:13;;;;;;;15.00;7.93;;;;;;;7.87;100.00;98731.52;123514;1099;104268;-76
2023/11/12 06:17:45;;;;;;;18.03;8.63;;;;;;;7.91;100.00;98742.02;123624;1099;104265;-76
2023/11/12 06:20:16;;;;;;;16.93;8.33;;;;;;;7.87;100.00;98748.05;123547;1098;104294;-76
2023/11/12 06:22:48;;;;;;;18.73;8.20;;;;;;;7.87;100.00;98749.80;123571;1102;104201;-76
2023/11/12 06:25:19;;;;;;;17.37;8.17;;;;;;;7.87;100.00;98761.11;123487;1099;104286;-77
2023/11/12 06:27:51;;;;;;;15.30;7.87;;;;;;;7.88;100.00;98761.98;123485;1099;104254;-77
2023/11/12 06:30:22;;;;;;;15.20;7.60;;;;;;;7.85;100.00;98767.14;123508;1099;104216;-77
2023/11/12 06:32:54;;;;;;;15.55;7.50;;;;;;;7.83;100.00;98769.72;123383;1099;104319;-77
2023/11/12 06:35:25;;;;;;;17.15;7.30;;;;;;;7.82;100.00;98783.66;123499;1099;104255;-76
2023/11/12 06:37:57;;;;;;;15.37;7.37;;;;;;;7.80;100.00;98785.33;123387;1099;104300;-76
2023/11/12 06:40:28;;;;;;;15.23;7.40;;;;;;;7.75;100.00;98781.77;123377;1099;104245;-77
2023/11/12 06:43:00;;;;;;;13.67;6.87;;;;;;;7.73;100.00;98792.17;123488;1099;104354;-77
2023/11/12 06:45:31;;;;;;;14.97;6.77;;;;;;;7.77;100.00;98800.94;123509;1099;104334;-77
2023/11/12 06:48:03;;;;;;;15.20;6.53;;;;;;;7.77;100.00;98794.84;123319;1102;104469;-76
2023/11/12 06:50:34;;;;;;;13.33;6.73;;;;;;;7.75;100.00;98802.66;123371;1099;104353;-77
2023/11/12 06:53:06;;;;;;;15.25;6.75;;;;;;;7.76;100.00;98798.30;123375;1102;104296;-77
2023/11/12 06:55:37;;;;;;;13.87;6.97;;;;;;;7.81;100.00;98812.34;123471;1099;104226;-77
2023/11/12 06:58:09;;;;;;;15.27;7.10;;;;;;;7.83;100.00;98810.64;123438;1099;104815;-77
2023/11/12 07:00:41;;;;;;;15.40;6.63;;;;;;;7.84;100.00;98810.66;123422;1099;104248;-77
2023/11/12 07:03:12;;;;;;;15.93;6.80;;;;;;;7.86;100.00;98806.34;123516;1099;104350;-77
2023/11/12 07:05:44;;;;;;;14.80;6.90;;;;;;;7.86;100.00;98811.56;123402;1101;104222;-76
2023/11/12 07:08:19;;;;;;;16.27;6.47;;;;;;;7.89;100.00;98821.20;123316;1099;104416;-77
2023/11/12 07:10:50;;;;;;;15.30;6.77;;;;;;;7.90;100.00;98822.97;123390;1099;104454;-77
2023/11/12 07:13:22;;;;;;;14.53;6.30;;;;;;;7.86;100.00;98824.63;123467;1099;104267;-77
2023/11/12 07:15:53;;;;;;;14.07;6.43;;;;;;;7.84;100.00;98831.56;123361;1099;104233;-76
2023/11/12 07:18:24;;;;;;;13.87;6.70;;;;;;;7.85;100.00;98841.16;123595;1099;104328;-77
2023/11/12 07:20:56;;;;;;;15.67;6.67;;;;;;;7.90;100.00;98849.09;123636;1099;102704;-78
2023/11/12 07:23:27;;;;;;;14.97;6.97;;;;;;;7.92;100.00;98849.99;123422;1100;104313;-77
2023/11/12 07:25:59;;;;;;;15.70;7.00;;;;;;;7.94;100.00;98858.73;123554;1099;104271;-76
2023/11/12 07:28:31;;;;;;;14.73;6.77;;;;;;;7.96;100.00;98859.63;123550;1099;104625;-77
2023/11/12 07:31:03;;;;;;;14.10;6.93;;;;;;;7.95;100.00;98867.44;123423;1102;104272;-76
2023/11/12 07:33:34;;;;;;;14.00;7.00;;;;;;;7.96;100.00;98874.43;123299;1099;104291;-76
2023/11/12 07:36:08;;;;;;;15.87;7.10;;;;;;;7.96;100.00;98874.43;123327;1102;104463;-76
2023/11/12 07:38:41;;;;;;;15.83;6.60;;;;;;;7.99;100.00;98887.55;123600;1102;104721;-75
2023/11/12 07:41:12;;;;;;;11.73;6.43;;;;;;;8.02;100.00;98883.26;123723;1098;104226;-75
2023/11/12 07:43:44;;;;;;;16.30;6.70;;;;;;;8.07;100.00;98891.19;123246;1102;104185;-75
2023/11/12 07:46:16;;;;;;;13.90;6.67;;;;;;;8.13;100.00;98898.28;123222;1102;104333;-76
2023/11/12 07:48:49;;;;;;;15.30;7.47;;;;;;;8.18;100.00;98902.76;123208;1099;104306;-76
2023/11/12 07:51:22;;;;;;;14.30;7.12;;;;;;;8.24;100.00;98897.66;123242;1099;104249;-75
2023/11/12 07:53:53;;;;;;;15.80;7.80;;;;;;;8.25;100.00;98908.98;123246;1099;104293;-75
2023/11/12 07:56:24;;;;;;;17.60;8.17;;;;;;;8.23;100.00;98914.17;123256;1099;104387;-74
2023/11/12 07:58:56;;;;;;;14.37;8.27;;;;;;;8.24;100.00;98922.88;123222;1099;104364;-74
2023/11/12 08:01:27;;;;;;;18.37;8.70;;;;;;;8.27;100.00;98918.62;123170;1099;104402;-74
2023/11/12 08:03:59;;;;;;;17.20;8.27;;;;;;;8.37;100.00;98924.89;123203;1099;104245;-74
2023/11/12 08:06:30;;;;;;;16.50;8.97;;;;;;;8.48;100.00;98932.08;123245;1099;104259;-75
2023/11/12 08:09:01;;;;;;;15.93;8.03;;;;;;;8.59;100.00;98934.05;123309;1099;104358;-75
2023/11/12 08:11:38;;;;;;;16.73;8.20;;;;;;;8.63;100.00;98943.72;123196;1099;104346;-73
2023/11/12 08:14:10;;;;;;;16.77;8.30;;;;;;;8.68;100.00;98945.52;123295;1099;102626;-75
2023/11/12 08:16:41;;;;;;;19.47;8.97;;;;;;;8.77;100.00;98950.92;123267;1099;104380;-74
2023/11/12 08:19:13;;;;;;;15.53;8.10;;;;;;;8.84;100.00;98955.42;123245;1102;104262;-74
2023/11/12 08:21:44;;;;;;;16.03;8.17;;;;;;;8.92;100.00;98960.79;123140;1102;104364;-74
2023/11/12 08:24:16;;;;;;;16.70;8.90;;;;;;;8.97;100.00;98970.45;123222;1099;104355;-75
2023/11/12 08:26:47;;;;;;;17.87;9.33;;;;;;;8.92;100.00;98984.33;123181;1099;104379;-74
2023/11/12 08:29:19;;;;;;;16.30;8.27;;;;;;;8.94;100.00;98977.38;123213;1100;104380;-75
2023/11/12 08:31:51;;;;;;;17.20;9.00;;;;;;;9.01;100.00;98981.88;123141;1101;104373;-74
2023/11/12 08:34:22;;;;;;;17.67;8.80;;;;;;;9.07;100.00;98988.94;123240;1099;104380;-74
2023/11/12 08:36:53;;;;;;;16.93;8.57;;;;;;;9.16;100.00;98983.86;123244;1099;104383;-74
2023/11/12 08:39:25;;;;;;;16.90;8.67;;;;;;;9.24;100.00;98984.00;123225;1099;104374;-74
2023/11/12 08:41:56;;;;;;;16.20;7.93;;;;;;;9.23;100.00;98993.59;123252;1099;104354;-74
2023/11/12 08:44:28;;;;;;;14.77;7.60;;;;;;;9.15;100.00;98998.70;123274;1099;104659;-74
2023/11/12 08:47:00;;;;;;;16.67;8.10;;;;;;;9.13;100.00;99002.13;123214;1099;104281;-73
2023/11/12 08:49:32;;;;;;;16.30;7.67;;;;;;;9.13;100.00;99017.83;123216;1102;104364;-74
2023/11/12 08:52:04;;;;;;;15.10;7.25;;;;;;;9.01;100.00;99018.51;123161;1099;104338;-74
2023/11/12 08:54:36;;;;;;;15.73;6.83;;;;;;;8.97;100.00;99027.14;123168;1099;104332;-75
2023/11/12 08:57:09;;;;;;;12.50;6.33;;;;;;;8.94;100.00;99025.37;123187;1099;104258;-75
2023/11/12 08:59:40;;;;;;;12.20;5.50;;;;;;;8.90;100.00;99031.39;123173;1102;104360;-76
2023/11/12 09:02:12;;;;;;;9.87;5.37;;;;;;;8.87;100.00;99039.18;123198;1099;104226;-75
2023/11/12 09:04:44;;;;;;;8.70;4.80;;;;;;;8.81;100.00;99041.67;123183;1099;104495;-74
2023/11/12 09:07:15;;;;;;;9.57;4.50;;;;;;;8.80;100.00;99050.36;123298;1100;104277;-74
2023/11/12 09:09:47;;;;;;;9.20;4.87;;;;;;;8.74;100.00;99050.24;123377;1102;104371;-74
2023/11/12 09:12:18;;;;;;;8.43;4.70;;;;;;;8.73;100.00;99053.73;123262;1099;104357;-73
2023/11/12 09:14:50;;;;;;;7.27;4.33;;;;;;;8.71;100.00;99055.41;123247;1099;104325;-73
2023/11/12 09:17:21;;;;;;;9.23;4.70;;;;;;;8.72;100.00;99058.06;123281;1099;107122;-74
2023/11/12 09:19:53;;;;;;;10.35;4.45;;;;;;;8.74;100.00;99063.32;123314;1099;105130;-74
2023/11/12 09:22:25;;;;;;;8.10;3.90;;;;;;;8.74;100.00;99071.17;123252;1099;104360;-75
2023/11/12 09:24:56;;;;;;;7.67;3.73;;;;;;;8.73;100.00;99072.03;123207;1099;104357;-74
2023/11/12 09:27:30;;;;;;;7.90;4.03;;;;;;;8.71;100.00;99078.95;123213;1103;104287;-74
2023/11/12 09:30:03;;;;;;;9.18;4.37;;;;;;;8.71;100.00;99074.62;123193;1099;104286;-75
2023/11/12 09:32:35;;;;;;;8.07;4.33;;;;;;;8.74;100.00;99086.86;123234;1099;104357;-74
2023/11/12 09:35:09;;;;;;;9.20;4.33;;;;;;;8.80;100.00;99092.22;123297;1099;104312;-74
2023/11/12 09:37:41;;;;;;;8.28;4.25;;;;;;;8.89;100.00;99091.53;123394;1099;104185;-74
2023/11/12 09:40:16;;;;;;;7.77;4.30;;;;;;;8.92;100.00;99092.46;123211;1102;104331;-76
2023/11/12 09:42:53;;;;;;;7.50;4.25;;;;;;;8.95;100.00;99102.12;123387;1099;104531;-74
2023/11/12 09:45:26;;;;;;;8.10;4.17;;;;;;;8.97;100.00;99106.50;123214;1099;104313;-75
2023/11/12 09:48:06;;;;;;;8.70;4.20;;;;;;;8.92;100.00;99109.91;123245;1099;111701;-75
2023/11/12 09:50:38;;;;;;;7.00;3.97;;;;;;;8.89;100.00;99110.71;123246;1099;104296;-75
2023/11/12 09:53:12;;;;;;;8.20;4.20;;;;;;;8.92;100.00;99116.00;123274;1099;104302;-75
2023/11/12 09:55:47;;;;;;;7.33;4.27;;;;;;;8.91;100.00;99116.87;123346;1099;104383;-75
2023/11/12 09:58:18;;;;;;;7.60;4.40;;;;;;;8.90;100.00;99122.95;123487;1099;104223;-75
2023/11/12 10:00:50;;;;;;;9.97;4.60;;;;;;;8.89;100.00;99126.41;123207;1099;104304;-75
2023/11/12 10:03:22;;;;;;;8.83;4.67;;;;;;;8.89;100.00;99129.02;123251;1102;104274;-75
2023/11/12 10:05:54;;;;;;;7.43;4.03;;;;;;;8.89;100.00;99139.48;123177;1099;104245;-74
2023/11/12 10:08:26;;;;;;;10.10;4.70;;;;;;;8.90;100.00;99135.16;123237;1099;104227;-75
2023/11/12 10:11:16;;;;;;;6.80;4.30;;;;;;;8.94;100.00;99143.10;123167;1099;104239;-75
2023/11/12 10:13:49;;;;;;;9.03;4.30;;;;;;;8.95;100.00;99147.46;123291;1099;104325;-75
2023/11/12 10:16:29;;;;;;;9.35;4.60;;;;;;;8.97;100.00;99152.73;123246;1099;104275;-74
2023/11/12 10:19:13;;;;;;;8.83;4.40;;;;;;;8.97;100.00;99153.59;123256;1099;117886;-73
2023/11/12 10:21:58;;;;;;;10.45;4.55;;;;;;;8.99;100.00;99157.16;123222;1099;104345;-75
2023/11/12 10:24:31;;;;;;;9.27;4.80;;;;;;;8.99;100.00;99170.23;123400;1099;104248;-76
2023/11/12 10:27:06;;;;;;;9.57;4.03;;;;;;;8.97;100.00;99164.06;123257;1102;104304;-74
2023/11/12 10:29:37;;;;;;;9.53;4.73;;;;;;;9.03;100.00;99165.06;123242;1099;104245;-74
2023/11/12 10:32:23;;;;;;;8.20;4.30;;;;;;;9.07;100.00;99179.95;123288;1102;105318;-75
2023/11/12 10:34:55;;;;;;;7.93;4.10;;;;;;;9.08;100.00;99179.11;123285;1099;104306;-74
2023/11/12 10:37:26;;;;;;;9.37;4.33;;;;;;;9.12;100.00;99186.19;123367;1099;104389;-75
2023/11/12 10:40:06;;;;;;;6.50;3.90;;;;;;;9.13;100.00;99185.31;123203;1102;104280;-74
2023/11/12 10:42:39;;;;;;;6.03;3.17;;;;;;;9.14;100.00;99193.20;123316;1099;104325;-75
2023/11/12 10:45:27;;;;;;;9.43;3.30;;;;;;;9.10;100.00;99200.95;123315;1099;104354;-74
2023/11/12 10:48:04;;;;;;;6.97;3.20;;;;;;;9.16;100.00;99204.60;123353;1099;104636;-74
2023/11/12 10:50:37;;;;;;;5.03;3.30;;;;;;;9.21;100.00;99214.26;123473;1099;104305;-75
2023/11/12 10:53:11;;;;;;;6.28;3.02;;;;;;;9.17;100.00;99224.66;123325;1099;104360;-74
2023/11/12 10:55:43;;;;;;;5.10;2.90;;;;;;;9.14;100.00;99218.50;123363;1101;104278;-75
2023/11/12 10:58:16;;;;;;;4.00;2.77;;;;;;;9.11;100.00;99232.39;123360;1099;104291;-75
2023/11/12 11:00:49;;;;;;;6.30;3.27;;;;;;;9.04;100.00;99237.45;123295;1099;104235;-75
2023/11/12 11:03:21;;;;;;;4.70;2.70;;;;;;;9.04;100.00;99235.74;123445;1099;104229;-75
2023/11/12 11:05:53;;;;;;;4.13;2.77;;;;;;;9.03;100.00;99240.95;123302;1099;104239;-76
2023/11/12 11:08:26;;;;;;;3.23;2.60;;;;;;;9.06;100.00;99247.12;123308;1099;104296;-75
2023/11/12 11:10:59;;;;;;;3.30;2.67;;;;;;;9.05;100.00;99253.19;123323;1099;104293;-75
2023/11/12 11:13:30;;;;;;;4.80;2.90;;;;;;;9.00;100.00;99250.47;123424;1099;104313;-75
2023/11/12 11:16:02;;;;;;;5.20;2.90;;;;;;;8.94;100.00;99252.98;123315;1099;104277;-76
2023/11/12 11:18:53;;;;;;;5.17;3.20;;;;;;;8.94;100.00;99263.45;123430;1102;104708;-76
2023/11/12 11:21:24;;;;;;;4.35;2.90;;;;;;;8.92;100.00;99262.51;123511;1099;104379;-76
2023/11/12 11:23:56;;;;;;;4.53;2.80;;;;;;;8.98;100.00;99270.50;123475;1099;104375;-76
2023/11/12 11:26:33;;;;;;;5.07;2.97;;;;;;;9.09;100.00;99280.33;123440;1099;104437;-75
2023/11/12 11:29:17;;;;;;;4.10;2.80;;;;;;;9.19;100.00;99279.66;123507;1099;104357;-75
2023/11/12 11:32:18;;;;;;;4.33;2.60;;;;;;;9.15;100.00;99286.58;123462;1099;104184;-75